createdAt,value
2019-04-30T00:02:01.443Z,13.51
2019-04-30T00:04:40.385Z,13.36
2019-04-30T00:07:10.298Z,13.31
2019-04-30T00:09:42.054Z,13.22
2019-04-30T00:12:12.409Z,13.19
2019-04-30T00:14:41.943Z,13.21
2019-04-30T00:17:16.021Z,13.19
2019-04-30T00:19:42.821Z,13.09
2019-04-30T00:22:12.356Z,13.10
2019-04-30T00:24:46.758Z,13.13
2019-04-30T00:27:14.977Z,13.11
2019-04-30T00:29:45.741Z,13.02
2019-04-30T00:32:15.909Z,13.07
2019-04-30T00:34:45.709Z,13.12
2019-04-30T00:37:18.807Z,13.19
2019-04-30T00:39:51.124Z,13.23
2019-04-30T00:42:24.466Z,13.30
2019-04-30T00:44:50.093Z,13.31
2019-04-30T00:47:19.624Z,13.33
2019-04-30T00:49:52.170Z,13.36
2019-04-30T00:52:20.425Z,13.33
2019-04-30T00:54:49.968Z,13.36
2019-04-30T00:57:19.511Z,13.35
2019-04-30T00:59:49.052Z,13.39
2019-04-30T01:02:31.784Z,13.40
2019-04-30T01:05:05.333Z,13.41
2019-04-30T01:07:29.698Z,13.45
2019-04-30T01:09:59.232Z,13.43
2019-04-30T01:12:33.990Z,13.39
2019-04-30T01:15:01.748Z,13.41
2019-04-30T01:17:31.320Z,13.37
2019-04-30T01:20:01.082Z,13.39
2019-04-30T01:22:32.833Z,13.39
2019-04-30T01:25:11.777Z,13.29
2019-04-30T01:27:33.254Z,13.18
2019-04-30T01:30:03.743Z,13.03
2019-04-30T01:32:34.468Z,12.96
2019-04-30T01:35:04.686Z,12.84
2019-04-30T01:37:34.305Z,12.77
2019-04-30T01:40:10.538Z,12.73
2019-04-30T01:42:35.159Z,12.72
2019-04-30T01:45:04.959Z,12.73
2019-04-30T01:47:34.509Z,12.77
2019-04-30T01:50:05.002Z,12.64
2019-04-30T01:52:52.657Z,12.59
2019-04-30T01:55:29.420Z,12.62
2019-04-30T01:58:09.957Z,12.68
2019-04-30T02:00:53.940Z,12.58
2019-04-30T02:03:23.483Z,12.46
2019-04-30T02:05:53.048Z,12.44
2019-04-30T02:08:22.588Z,12.49
2019-04-30T02:10:52.126Z,12.42
2019-04-30T02:13:21.653Z,12.44
2019-04-30T02:15:51.201Z,12.36
2019-04-30T02:18:20.728Z,12.36
2019-04-30T02:20:51.237Z,12.34
2019-04-30T02:23:20.773Z,12.34
2019-04-30T02:25:50.339Z,12.41
2019-04-30T02:28:19.858Z,12.43
2019-04-30T02:30:50.530Z,12.48
2019-04-30T02:33:20.657Z,12.51
2019-04-30T02:36:03.262Z,12.58
2019-04-30T02:38:31.699Z,12.59
2019-04-30T02:41:01.716Z,12.57
2019-04-30T02:43:33.128Z,12.66
2019-04-30T02:46:04.692Z,12.73
2019-04-30T02:48:39.577Z,12.80
2019-04-30T02:51:10.168Z,12.87
2019-04-30T02:54:23.954Z,12.79
2019-04-30T02:56:56.291Z,12.66
2019-04-30T02:59:25.831Z,12.59
2019-04-30T03:01:55.460Z,12.70
2019-04-30T03:04:24.996Z,12.59
2019-04-30T03:06:54.541Z,12.49
2019-04-30T03:09:24.069Z,12.49
2019-04-30T03:11:53.614Z,12.50
2019-04-30T03:14:23.208Z,12.40
2019-04-30T03:17:21.056Z,12.29
2019-04-30T03:20:10.641Z,12.04
2019-04-30T03:22:40.025Z,11.98
2019-04-30T03:25:09.670Z,11.97
2019-04-30T03:27:42.203Z,12.00
2019-04-30T03:30:11.832Z,12.08
2019-04-30T03:32:43.015Z,11.81
2019-04-30T03:35:13.419Z,12.28
2019-04-30T03:37:44.024Z,12.45
2019-04-30T03:40:13.750Z,12.46
2019-04-30T03:42:43.304Z,12.41
2019-04-30T03:45:12.924Z,12.19
2019-04-30T03:47:43.144Z,12.12
2019-04-30T03:50:13.979Z,11.97
2019-04-30T03:52:43.529Z,12.01
2019-04-30T03:55:13.063Z,12.00
2019-04-30T03:57:42.614Z,12.04
2019-04-30T04:00:14.229Z,12.11
2019-04-30T04:02:49.868Z,12.20
2019-04-30T04:05:29.679Z,12.11
2019-04-30T04:08:13.918Z,12.11
2019-04-30T04:11:01.448Z,12.14
2019-04-30T04:13:33.191Z,12.31
2019-04-30T04:16:03.506Z,12.39
2019-04-30T04:18:33.034Z,12.44
2019-04-30T04:21:11.697Z,12.54
2019-04-30T04:23:33.892Z,12.56
2019-04-30T04:26:03.502Z,12.47
2019-04-30T04:28:33.031Z,12.19
2019-04-30T04:31:02.597Z,12.14
2019-04-30T04:33:32.133Z,12.09
2019-04-30T04:36:01.674Z,12.11
2019-04-30T04:38:31.239Z,12.14
2019-04-30T04:41:03.057Z,12.03
2019-04-30T04:43:32.117Z,12.14
2019-04-30T04:46:01.643Z,12.17
2019-04-30T04:48:32.908Z,12.09
2019-04-30T04:51:02.447Z,11.94
2019-04-30T04:53:31.984Z,11.93
2019-04-30T04:56:01.519Z,11.82
2019-04-30T04:58:31.051Z,11.38
2019-04-30T05:01:00.620Z,11.32
2019-04-30T05:03:33.470Z,11.54
2019-04-30T05:06:03.078Z,11.66
2019-04-30T05:08:32.683Z,11.68
2019-04-30T05:11:02.264Z,11.82
2019-04-30T05:13:34.535Z,11.64
2019-04-30T05:16:03.051Z,11.50
2019-04-30T05:18:32.596Z,11.44
2019-04-30T05:21:02.151Z,11.48
2019-04-30T05:23:31.696Z,11.63
2019-04-30T05:26:01.230Z,11.76
2019-04-30T05:28:30.793Z,11.79
2019-04-30T05:31:00.411Z,11.85
2019-04-30T05:33:29.978Z,11.90
2019-04-30T05:36:00.495Z,11.85
2019-04-30T05:38:31.310Z,11.99
2019-04-30T05:41:00.962Z,11.78
2019-04-30T05:43:30.601Z,11.95
2019-04-30T05:46:00.203Z,12.01
2019-04-30T05:48:29.760Z,12.17
2019-04-30T05:50:59.526Z,12.19
2019-04-30T05:53:29.052Z,12.02
2019-04-30T05:55:59.328Z,11.97
2019-04-30T05:58:29.941Z,12.08
2019-04-30T06:00:59.943Z,12.29
2019-04-30T06:03:32.805Z,12.28
2019-04-30T06:06:00.782Z,12.24
2019-04-30T06:08:39.298Z,12.34
2019-04-30T06:11:12.934Z,12.29
2019-04-30T06:14:13.524Z,12.32
2019-04-30T06:16:44.703Z,12.15
2019-04-30T06:19:14.231Z,12.02
2019-04-30T06:21:44.748Z,11.84
2019-04-30T06:24:14.298Z,11.75
2019-04-30T06:26:43.862Z,11.77
2019-04-30T06:29:13.401Z,11.73
2019-04-30T06:31:43.308Z,11.60
2019-04-30T06:34:13.000Z,11.41
2019-04-30T06:36:50.992Z,11.49
2019-04-30T06:39:14.022Z,11.64
2019-04-30T06:41:44.582Z,11.56
2019-04-30T06:44:14.405Z,11.88
2019-04-30T06:46:44.098Z,12.05
2019-04-30T06:49:14.672Z,12.15
2019-04-30T06:51:44.188Z,12.23
2019-04-30T06:54:13.742Z,12.35
2019-04-30T06:56:43.263Z,12.19
2019-04-30T06:59:12.792Z,12.18
2019-04-30T07:01:42.327Z,12.04
2019-04-30T07:04:11.882Z,12.18
2019-04-30T07:06:45.071Z,11.88
2019-04-30T07:09:26.840Z,11.96
2019-04-30T07:12:27.068Z,12.06
2019-04-30T07:14:50.751Z,12.10
2019-04-30T07:17:20.310Z,12.05
2019-04-30T07:19:55.608Z,12.31
2019-04-30T07:22:36.622Z,12.14
2019-04-30T07:24:52.449Z,12.64
2019-04-30T07:27:24.281Z,12.70
2019-04-30T07:29:53.974Z,12.89
2019-04-30T07:32:23.483Z,13.10
2019-04-30T07:34:53.014Z,12.99
2019-04-30T07:37:24.678Z,12.89
2019-04-30T07:39:53.801Z,12.83
2019-04-30T07:42:23.323Z,12.92
2019-04-30T07:44:52.864Z,13.12
2019-04-30T07:47:22.402Z,13.20
2019-04-30T07:49:55.648Z,13.14
2019-04-30T07:52:23.737Z,13.27
2019-04-30T07:54:53.609Z,13.30
2019-04-30T07:57:23.165Z,13.36
2019-04-30T07:59:53.446Z,13.36
2019-04-30T08:02:22.983Z,13.41
2019-04-30T08:04:59.887Z,13.36
2019-04-30T08:07:30.279Z,13.36
2019-04-30T08:09:59.848Z,13.43
2019-04-30T08:12:34.526Z,13.43
2019-04-30T08:15:00.590Z,13.34
2019-04-30T08:17:30.130Z,13.36
2019-04-30T08:19:59.673Z,13.42
2019-04-30T08:22:29.787Z,13.44
2019-04-30T08:24:59.395Z,13.49
2019-04-30T08:27:29.602Z,13.55
2019-04-30T08:29:59.321Z,13.61
2019-04-30T08:32:29.105Z,13.55
2019-04-30T08:35:00.902Z,13.58
2019-04-30T08:37:29.926Z,13.77
2019-04-30T08:40:00.289Z,13.90
2019-04-30T08:42:34.284Z,13.86
2019-04-30T08:45:03.320Z,13.71
2019-04-30T08:47:32.871Z,13.85
2019-04-30T08:50:03.075Z,14.03
2019-04-30T08:52:33.003Z,14.31
2019-04-30T08:55:13.442Z,14.32
2019-04-30T08:57:33.782Z,13.61
2019-04-30T09:00:03.329Z,13.79
2019-04-30T09:02:32.864Z,13.68
2019-04-30T09:05:06.196Z,13.83
2019-04-30T09:07:35.783Z,14.00
2019-04-30T09:10:05.417Z,14.17
2019-04-30T09:12:34.946Z,14.44
2019-04-30T09:15:04.853Z,14.28
2019-04-30T09:17:34.928Z,13.91
2019-04-30T09:20:04.489Z,13.88
2019-04-30T09:22:34.018Z,14.34
2019-04-30T09:25:03.583Z,14.56
2019-04-30T09:27:33.113Z,14.66
2019-04-30T09:30:02.785Z,14.63
2019-04-30T09:32:33.674Z,14.69
2019-04-30T09:35:03.208Z,14.80
2019-04-30T09:37:32.760Z,14.82
2019-04-30T09:40:02.363Z,14.91
2019-04-30T09:42:33.208Z,15.02
2019-04-30T09:45:02.805Z,15.05
2019-04-30T09:47:32.527Z,15.11
2019-04-30T09:50:02.063Z,14.58
2019-04-30T09:52:31.975Z,14.61
2019-04-30T09:55:02.342Z,14.51
2019-04-30T09:57:32.174Z,14.33
2019-04-30T10:00:01.730Z,14.58
2019-04-30T10:02:32.886Z,14.99
2019-04-30T10:05:02.979Z,15.15
2019-04-30T10:07:32.821Z,15.31
2019-04-30T10:10:02.378Z,15.54
2019-04-30T10:12:31.976Z,15.70
2019-04-30T10:15:01.515Z,15.53
2019-04-30T10:17:35.532Z,15.55
2019-04-30T10:20:07.001Z,15.57
2019-04-30T10:22:39.884Z,15.53
2019-04-30T10:25:09.317Z,15.71
2019-04-30T10:27:38.977Z,15.77
2019-04-30T10:30:09.494Z,16.01
2019-04-30T10:32:40.098Z,16.08
2019-04-30T10:35:09.731Z,16.13
2019-04-30T10:37:39.289Z,15.99
2019-04-30T10:40:10.332Z,15.78
2019-04-30T10:42:40.001Z,16.08
2019-04-30T10:45:10.036Z,16.38
2019-04-30T10:47:39.619Z,16.20
2019-04-30T10:50:09.898Z,16.38
2019-04-30T10:52:39.620Z,16.61
2019-04-30T10:55:09.495Z,16.71
2019-04-30T10:57:39.941Z,16.50
2019-04-30T11:00:12.473Z,16.67
2019-04-30T11:02:42.040Z,16.69
2019-04-30T11:05:12.213Z,16.83
2019-04-30T11:07:41.733Z,16.61
2019-04-30T11:10:11.569Z,16.71
2019-04-30T11:12:41.187Z,16.91
2019-04-30T11:15:10.782Z,17.02
2019-04-30T11:17:40.514Z,17.07
2019-04-30T11:20:10.516Z,17.17
2019-04-30T11:22:40.431Z,17.25
2019-04-30T11:25:10.592Z,17.08
2019-04-30T11:27:41.608Z,17.09
2019-04-30T11:30:20.336Z,17.36
2019-04-30T11:32:43.221Z,17.52
2019-04-30T11:35:13.024Z,17.37
2019-04-30T11:37:42.567Z,17.40
2019-04-30T11:40:14.159Z,17.60
2019-04-30T11:42:43.872Z,17.57
2019-04-30T11:45:19.462Z,17.64
2019-04-30T11:47:53.610Z,17.84
2019-04-30T11:50:20.932Z,17.75
2019-04-30T11:52:50.454Z,17.80
2019-04-30T11:55:20.057Z,17.77
2019-04-30T11:57:49.595Z,17.68
2019-04-30T12:00:25.932Z,17.90
2019-04-30T12:02:55.468Z,17.98
2019-04-30T12:05:25.065Z,17.98
2019-04-30T12:08:26.578Z,18.02
2019-04-30T12:11:06.037Z,18.11
2019-04-30T12:13:35.568Z,18.19
2019-04-30T12:16:05.394Z,18.41
2019-04-30T12:18:35.014Z,18.59
2019-04-30T12:21:08.221Z,18.47
2019-04-30T12:23:37.748Z,18.69
2019-04-30T12:26:09.201Z,18.75
2019-04-30T12:28:40.970Z,18.81
2019-04-30T12:31:10.515Z,18.93
2019-04-30T12:33:40.186Z,18.72
2019-04-30T12:36:09.977Z,18.82
2019-04-30T12:38:39.534Z,18.84
2019-04-30T12:41:09.137Z,18.78
2019-04-30T12:43:38.835Z,18.82
2019-04-30T12:46:08.368Z,18.95
2019-04-30T12:48:57.029Z,19.03
2019-04-30T12:51:45.830Z,19.13
2019-04-30T12:54:24.458Z,19.12
2019-04-30T12:57:06.495Z,19.14
2019-04-30T12:59:36.164Z,19.10
2019-04-30T13:02:05.795Z,19.14
2019-04-30T13:04:35.369Z,19.35
2019-04-30T13:07:05.595Z,19.50
2019-04-30T13:09:36.124Z,19.39
2019-04-30T13:12:06.444Z,19.18
2019-04-30T13:14:50.267Z,18.97
2019-04-30T13:17:07.553Z,18.94
2019-04-30T13:19:37.116Z,19.18
2019-04-30T13:22:06.762Z,19.41
2019-04-30T13:24:39.596Z,19.48
2019-04-30T13:27:09.579Z,19.69
2019-04-30T13:29:50.112Z,19.81
2019-04-30T13:32:29.862Z,19.92
2019-04-30T13:35:00.898Z,19.99
2019-04-30T13:37:40.483Z,19.90
2019-04-30T13:40:20.146Z,19.63
2019-04-30T13:42:50.275Z,19.60
2019-04-30T13:45:20.820Z,19.86
2019-04-30T13:47:50.512Z,19.68
2019-04-30T13:50:21.566Z,19.54
2019-04-30T13:52:51.211Z,19.54
2019-04-30T13:55:22.772Z,19.52
2019-04-30T13:57:52.319Z,19.32
2019-04-30T14:00:25.341Z,19.45
2019-04-30T14:03:14.716Z,19.32
2019-04-30T14:05:44.531Z,19.45
2019-04-30T14:08:20.534Z,19.55
2019-04-30T14:10:50.216Z,19.21
2019-04-30T14:13:20.647Z,19.12
2019-04-30T14:15:50.272Z,19.29
2019-04-30T14:18:28.433Z,19.50
2019-04-30T14:20:51.303Z,19.56
2019-04-30T14:23:20.864Z,19.49
2019-04-30T14:25:56.577Z,19.46
2019-04-30T14:28:21.650Z,19.42
2019-04-30T14:30:51.250Z,19.45
2019-04-30T14:33:25.925Z,19.70
2019-04-30T14:35:52.118Z,19.63
2019-04-30T14:38:21.695Z,19.75
2019-04-30T14:40:52.056Z,19.79
2019-04-30T14:43:32.648Z,19.55
2019-04-30T14:46:30.121Z,19.60
2019-04-30T14:49:21.903Z,19.73
2019-04-30T14:51:51.443Z,19.58
2019-04-30T14:54:27.140Z,19.61
2019-04-30T14:57:03.991Z,19.37
2019-04-30T14:59:59.089Z,19.62
2019-04-30T15:02:36.375Z,19.65
2019-04-30T15:05:08.949Z,19.54
2019-04-30T15:07:39.707Z,19.48
2019-04-30T15:10:09.440Z,19.56
2019-04-30T15:12:39.089Z,19.80
2019-04-30T15:15:09.228Z,19.74
2019-04-30T15:17:41.281Z,19.83
2019-04-30T15:20:11.015Z,19.86
2019-04-30T15:22:44.427Z,20.36
2019-04-30T15:25:14.237Z,20.83
2019-04-30T15:27:47.683Z,20.77
2019-04-30T15:30:21.713Z,21.21
2019-04-30T15:32:49.726Z,21.24
2019-04-30T15:35:19.796Z,21.06
2019-04-30T15:37:51.016Z,21.23
2019-04-30T15:40:20.590Z,21.07
2019-04-30T15:42:51.790Z,20.63
2019-04-30T15:45:22.375Z,20.31
2019-04-30T15:47:51.921Z,20.19
2019-04-30T15:50:21.511Z,20.14
2019-04-30T15:52:51.070Z,20.12
2019-04-30T15:55:20.624Z,19.88
2019-04-30T15:58:18.442Z,20.06
2019-04-30T16:00:49.392Z,19.57
2019-04-30T16:03:23.261Z,19.97
2019-04-30T16:05:53.637Z,20.09
2019-04-30T16:08:41.698Z,20.17
2019-04-30T16:11:30.655Z,19.93
2019-04-30T16:14:09.173Z,20.12
2019-04-30T16:16:40.608Z,20.36
2019-04-30T16:19:10.178Z,20.54
2019-04-30T16:21:39.832Z,20.35
2019-04-30T16:24:09.369Z,20.00
2019-04-30T16:26:49.075Z,20.17
2019-04-30T16:29:11.325Z,20.26
2019-04-30T16:31:42.228Z,20.15
2019-04-30T16:34:11.778Z,19.78
2019-04-30T16:36:41.370Z,19.60
2019-04-30T16:39:10.971Z,19.74
2019-04-30T16:41:40.951Z,19.90
2019-04-30T16:44:10.624Z,19.81
2019-04-30T16:46:40.174Z,19.68
2019-04-30T16:49:11.133Z,19.84
2019-04-30T16:51:40.981Z,19.94
2019-04-30T16:54:30.000Z,19.70
2019-04-30T16:57:04.142Z,19.80
2019-04-30T16:59:36.032Z,19.84
2019-04-30T17:02:05.708Z,19.90
2019-04-30T17:04:44.615Z,19.99
2019-04-30T17:07:50.507Z,19.98
2019-04-30T17:10:39.415Z,20.12
2019-04-30T17:13:24.908Z,19.75
2019-04-30T17:15:57.629Z,18.87
2019-04-30T17:18:27.286Z,19.77
2019-04-30T17:20:58.580Z,19.72
2019-04-30T17:23:29.322Z,19.85
2019-04-30T17:25:59.896Z,19.96
2019-04-30T17:28:30.465Z,19.92
2019-04-30T17:31:00.090Z,19.96
2019-04-30T17:33:30.646Z,19.92
2019-04-30T17:36:00.165Z,20.04
2019-04-30T17:38:29.688Z,19.99
2019-04-30T17:40:59.291Z,19.97
2019-04-30T17:43:28.842Z,19.92
2019-04-30T17:45:58.977Z,19.94
2019-04-30T17:48:29.145Z,19.92
2019-04-30T17:51:00.493Z,19.94
2019-04-30T17:53:31.101Z,19.90
2019-04-30T17:56:00.657Z,19.84
2019-04-30T17:58:30.260Z,19.63
2019-04-30T18:01:01.410Z,19.52
2019-04-30T18:03:31.031Z,19.46
2019-04-30T18:06:01.492Z,19.27
2019-04-30T18:08:31.059Z,19.25
2019-04-30T18:11:00.604Z,19.25
2019-04-30T18:13:30.236Z,19.30
2019-04-30T18:16:00.454Z,19.35
2019-04-30T18:18:39.989Z,19.36
2019-04-30T18:21:32.636Z,19.33
2019-04-30T18:24:21.238Z,19.28
2019-04-30T18:26:56.016Z,19.23
2019-04-30T18:29:25.624Z,19.40
2019-04-30T18:31:55.201Z,19.45
2019-04-30T18:34:24.803Z,19.45
2019-04-30T18:36:54.453Z,19.35
2019-04-30T18:39:24.104Z,19.26
2019-04-30T18:41:53.685Z,19.13
2019-04-30T18:44:23.242Z,19.09
2019-04-30T18:46:52.773Z,19.05
2019-04-30T18:49:22.336Z,18.98
2019-04-30T18:51:51.886Z,18.81
2019-04-30T18:54:21.467Z,18.79
2019-04-30T18:56:51.047Z,18.73
2019-04-30T18:59:20.667Z,18.64
2019-04-30T19:01:50.245Z,18.66
2019-04-30T19:04:19.913Z,18.47
2019-04-30T19:06:51.091Z,18.39
2019-04-30T19:09:40.953Z,18.24
2019-04-30T19:12:29.571Z,18.14
2019-04-30T19:15:16.620Z,18.30
2019-04-30T19:18:03.916Z,18.29
2019-04-30T19:20:53.741Z,18.25
2019-04-30T19:23:23.301Z,17.86
2019-04-30T19:25:52.915Z,17.75
2019-04-30T19:28:22.456Z,17.79
2019-04-30T19:30:57.925Z,17.82
2019-04-30T19:33:23.651Z,17.84
2019-04-30T19:35:53.321Z,17.90
2019-04-30T19:38:22.889Z,17.99
2019-04-30T19:40:52.536Z,18.03
2019-04-30T19:43:22.095Z,18.10
2019-04-30T19:45:51.667Z,18.19
2019-04-30T19:48:21.360Z,18.22
2019-04-30T19:50:50.893Z,18.20
2019-04-30T19:53:22.276Z,18.19
2019-04-30T19:55:51.995Z,18.25
2019-04-30T19:58:29.561Z,18.21
2019-04-30T20:00:52.884Z,18.14
2019-04-30T20:03:22.423Z,18.08
2019-04-30T20:05:52.954Z,18.07
2019-04-30T20:08:22.559Z,18.08
2019-04-30T20:10:52.192Z,18.13
2019-04-30T20:13:31.323Z,18.12
2019-04-30T20:15:53.071Z,18.09
2019-04-30T20:18:22.642Z,18.07
2019-04-30T20:20:54.276Z,18.06
2019-04-30T20:23:23.864Z,18.03
2019-04-30T20:25:53.759Z,18.00
2019-04-30T20:28:23.364Z,17.94
2019-04-30T20:30:52.907Z,17.90
2019-04-30T20:33:22.489Z,17.91
2019-04-30T20:35:52.082Z,17.71
2019-04-30T20:38:39.847Z,17.58
2019-04-30T20:41:10.155Z,17.52
2019-04-30T20:43:39.732Z,17.50
2019-04-30T20:46:10.380Z,17.44
2019-04-30T20:48:41.134Z,17.42
2019-04-30T20:51:11.766Z,17.52
2019-04-30T20:53:41.358Z,17.55
2019-04-30T20:56:11.952Z,17.58
2019-04-30T20:58:54.272Z,17.55
2019-04-30T21:01:12.736Z,17.53
2019-04-30T21:03:42.284Z,17.49
2019-04-30T21:06:11.925Z,17.40
2019-04-30T21:08:41.617Z,17.29
2019-04-30T21:11:11.173Z,17.29
2019-04-30T21:13:41.613Z,17.23
2019-04-30T21:16:11.225Z,17.09
2019-04-30T21:18:40.925Z,17.17
2019-04-30T21:21:10.712Z,17.15
2019-04-30T21:23:40.429Z,17.17
2019-04-30T21:26:10.181Z,17.18
2019-04-30T21:28:39.713Z,17.05
2019-04-30T21:31:37.427Z,16.84
2019-04-30T21:34:17.003Z,16.79
2019-04-30T21:36:46.539Z,16.78
2019-04-30T21:39:16.056Z,16.66
2019-04-30T21:41:45.578Z,16.70
2019-04-30T21:44:15.108Z,16.67
2019-04-30T21:46:44.624Z,16.63
2019-04-30T21:49:14.146Z,16.64
2019-04-30T21:51:43.674Z,16.63
2019-04-30T21:54:13.196Z,16.67
2019-04-30T21:56:42.735Z,16.57
2019-04-30T21:59:23.843Z,16.55
2019-04-30T22:01:43.517Z,16.50
2019-04-30T22:04:13.069Z,16.40
2019-04-30T22:06:42.929Z,16.36
2019-04-30T22:09:13.018Z,16.32
2019-04-30T22:11:44.174Z,16.30
2019-04-30T22:14:13.697Z,16.23
2019-04-30T22:16:44.350Z,16.27
2019-04-30T22:19:13.885Z,16.21
2019-04-30T22:21:43.412Z,16.25
2019-04-30T22:24:12.975Z,16.13
2019-04-30T22:26:42.491Z,16.14
2019-04-30T22:29:12.028Z,16.10
2019-04-30T22:31:41.541Z,16.03
2019-04-30T22:34:11.088Z,16.02
2019-04-30T22:36:44.005Z,15.92
2019-04-30T22:39:35.591Z,15.88
2019-04-30T22:42:39.537Z,15.90
2019-04-30T22:45:16.371Z,15.86
2019-04-30T22:47:45.890Z,15.88
2019-04-30T22:50:15.492Z,15.84
2019-04-30T22:52:45.007Z,15.84
2019-04-30T22:55:14.546Z,15.84
2019-04-30T22:57:44.072Z,15.83
2019-04-30T23:00:18.045Z,15.84
2019-04-30T23:03:03.222Z,15.86
2019-04-30T23:05:32.774Z,15.80
2019-04-30T23:08:02.295Z,15.71
2019-04-30T23:10:31.819Z,15.70
2019-04-30T23:13:01.340Z,15.70
2019-04-30T23:15:30.945Z,15.69
2019-04-30T23:18:00.483Z,15.68
2019-04-30T23:20:30.044Z,15.68
2019-04-30T23:22:59.558Z,15.62
2019-04-30T23:25:29.092Z,15.61
2019-04-30T23:27:58.609Z,15.57
2019-04-30T23:30:28.131Z,15.56
2019-04-30T23:32:57.649Z,15.54
2019-04-30T23:35:27.187Z,15.44
2019-04-30T23:37:57.058Z,15.49
2019-04-30T23:40:33.047Z,15.45
2019-04-30T23:43:02.571Z,15.49
2019-04-30T23:45:32.097Z,15.52
2019-04-30T23:48:01.616Z,15.49
2019-04-30T23:50:31.153Z,15.46
2019-04-30T23:53:01.648Z,15.47
2019-04-30T23:55:31.186Z,15.52
2019-04-30T23:58:00.702Z,15.48
